Time;durP1;ratioP1;P1;durP2;ratioP2;P2;SDS_P1;SDS_P2;PMS_P1;PMS_P2;Temp;Humidity;BMP_temperature;BMP_pressure;BME280_temperature;BME280_humidity;BME280_pressure;Samples;Min_cycle;Max_cycle;Signal;HPM_P1;HPM_P2
2023/06/27 00:00:45;;;;;;;5.25;2.30;;;;;;;;;;5079106;28;20224;-68
2023/06/27 00:03:11;;;;;;;4.63;2.15;;;;;;;;;;5081874;28;20180;-68
2023/06/27 00:05:36;;;;;;;5.20;2.50;;;;;;;;;;5071960;28;20382;-68
2023/06/27 00:08:02;;;;;;;10.55;2.65;;;;;;;;;;5080826;28;20624;-68
2023/06/27 00:10:27;;;;;;;5.75;2.55;;;;;;;;;;5085660;28;20192;-68
2023/06/27 00:12:52;;;;;;;7.63;2.35;;;;;;;;;;5086299;28;20211;-66
2023/06/27 00:15:19;;;;;;;4.70;2.70;;;;;;;;;;5068780;28;20208;-68
2023/06/27 00:17:44;;;;;;;6.35;2.63;;;;;;;;;;5074722;28;20199;-68
2023/06/27 00:20:11;;;;;;;7.60;2.50;;;;;;;;;;5073633;28;20559;-68
2023/06/27 00:22:40;;;;;;;4.50;2.50;;;;;;;;;;5077211;28;20249;-68
2023/06/27 00:25:07;;;;;;;8.10;2.60;;;;;;;;;;5067760;28;20564;-68
2023/06/27 00:27:33;;;;;;;5.72;2.60;;;;;;;;;;5081130;28;20295;-68
2023/06/27 00:29:58;;;;;;;6.22;2.30;;;;;;;;;;5083752;28;20709;-68
2023/06/27 00:32:23;;;;;;;7.72;2.30;;;;;;;;;;5083150;28;20196;-67
2023/06/27 00:34:49;;;;;;;5.03;2.55;;;;;;;;;;5085679;28;20239;-67
2023/06/27 00:37:14;;;;;;;3.50;2.15;;;;;;;;;;5078444;28;20211;-67
2023/06/27 00:39:40;;;;;;;6.03;2.95;;;;;;;;;;5070217;28;20275;-67
2023/06/27 00:42:06;;;;;;;5.82;2.58;;;;;;;;;;5077233;28;20177;-67
2023/06/27 00:44:31;;;;;;;6.25;2.38;;;;;;;;;;5078167;28;20193;-67
2023/06/27 00:46:58;;;;;;;7.05;3.25;;;;;;;;;;5080614;28;20192;-67
2023/06/27 00:49:23;;;;;;;6.80;2.97;;;;;;;;;;5071949;28;20177;-67
2023/06/27 00:51:50;;;;;;;5.57;2.75;;;;;;;;;;5088074;28;20275;-67
2023/06/27 00:54:16;;;;;;;15.95;3.65;;;;;;;;;;5077579;28;20220;-67
2023/06/27 00:56:42;;;;;;;8.30;3.30;;;;;;;;;;5085894;28;20184;-67
2023/06/27 00:59:08;;;;;;;6.68;2.83;;;;;;;;;;5076745;28;20731;-67
2023/06/27 01:01:34;;;;;;;7.80;3.42;;;;;;;;;;5084718;28;20200;-67
2023/06/27 01:03:59;;;;;;;6.53;3.13;;;;;;;;;;5083396;28;20191;-67
2023/06/27 01:06:30;;;;;;;11.85;3.42;;;;;;;;;;5079324;28;20191;-67
2023/06/27 01:09:20;;;;;;;11.52;3.65;;;;;;;;;;5081660;28;20188;-67
2023/06/27 01:11:51;;;;;;;8.82;3.47;;;;;;;;;;5076039;28;20213;-68
2023/06/27 01:14:18;;;;;;;8.85;3.22;;;;;;;;;;5073128;28;20215;-67
2023/06/27 01:16:46;;;;;;;4.93;3.22;;;;;;;;;;5086978;28;20234;-67
2023/06/27 01:19:12;;;;;;;9.55;3.40;;;;;;;;;;5070553;28;20215;-68
2023/06/27 01:21:40;;;;;;;7.90;3.67;;;;;;;;;;5076701;28;20785;-68
2023/06/27 01:24:07;;;;;;;9.13;3.70;;;;;;;;;;5086438;28;20528;-67
2023/06/27 01:26:33;;;;;;;6.63;3.70;;;;;;;;;;5069942;28;20255;-68
2023/06/27 01:28:59;;;;;;;7.57;3.47;;;;;;;;;;5084077;28;20550;-68
2023/06/27 01:31:38;;;;;;;7.13;3.45;;;;;;;;;;5078872;28;20196;-68
2023/06/27 01:34:15;;;;;;;8.88;4.00;;;;;;;;;;5086119;28;20260;-67
2023/06/27 01:36:49;;;;;;;10.38;4.13;;;;;;;;;;5085710;28;20203;-67
2023/06/27 01:39:18;;;;;;;6.22;4.30;;;;;;;;;;5075324;28;20192;-67
2023/06/27 01:41:47;;;;;;;5.47;3.70;;;;;;;;;;5079951;28;20226;-67
2023/06/27 01:44:14;;;;;;;10.13;4.50;;;;;;;;;;5079396;28;20471;-67
2023/06/27 01:46:40;;;;;;;9.80;4.00;;;;;;;;;;5080858;28;20220;-68
2023/06/27 01:49:08;;;;;;;7.45;3.85;;;;;;;;;;5080190;28;20608;-67
2023/06/27 01:51:33;;;;;;;8.55;3.75;;;;;;;;;;5082015;28;20529;-67
2023/06/27 01:53:59;;;;;;;8.55;4.00;;;;;;;;;;5081558;28;20223;-67
2023/06/27 01:56:24;;;;;;;7.57;4.38;;;;;;;;;;5079855;28;20242;-68
2023/06/27 01:58:50;;;;;;;10.52;4.68;;;;;;;;;;5079005;28;20189;-67
2023/06/27 02:01:16;;;;;;;8.82;4.38;;;;;;;;;;5073715;28;20216;-68
2023/06/27 02:03:41;;;;;;;6.20;4.28;;;;;;;;;;5085798;28;20551;-68
2023/06/27 02:06:06;;;;;;;9.27;4.28;;;;;;;;;;5076449;28;20199;-67
2023/06/27 02:08:32;;;;;;;9.38;4.43;;;;;;;;;;5082281;28;20204;-67
2023/06/27 02:10:57;;;;;;;12.18;4.65;;;;;;;;;;5085119;28;20199;-67
2023/06/27 02:13:22;;;;;;;9.13;4.53;;;;;;;;;;5081821;28;20670;-68
2023/06/27 02:15:48;;;;;;;8.10;4.72;;;;;;;;;;5080990;28;20203;-68
2023/06/27 02:18:13;;;;;;;8.43;4.45;;;;;;;;;;5084551;28;20188;-67
2023/06/27 02:20:38;;;;;;;10.45;4.75;;;;;;;;;;5082142;28;20188;-67
2023/06/27 02:23:04;;;;;;;9.73;4.38;;;;;;;;;;5080349;28;20188;-67
2023/06/27 02:25:29;;;;;;;9.32;4.50;;;;;;;;;;5081954;28;20214;-68
2023/06/27 02:27:55;;;;;;;10.23;5.28;;;;;;;;;;5082180;28;20192;-68
2023/06/27 02:30:20;;;;;;;13.73;4.97;;;;;;;;;;5081135;28;20613;-69
2023/06/27 02:32:45;;;;;;;8.13;4.65;;;;;;;;;;5083434;28;20203;-68
2023/06/27 02:35:15;;;;;;;7.30;5.03;;;;;;;;;;5085329;28;20299;-68
2023/06/27 02:37:40;;;;;;;9.60;5.07;;;;;;;;;;5070422;28;20200;-67
2023/06/27 02:40:06;;;;;;;8.60;4.50;;;;;;;;;;5077466;28;20695;-67
2023/06/27 02:42:32;;;;;;;8.82;5.25;;;;;;;;;;5080618;28;20227;-67
2023/06/27 02:44:57;;;;;;;10.65;5.20;;;;;;;;;;5085444;28;20204;-67
2023/06/27 02:47:22;;;;;;;12.25;5.50;;;;;;;;;;5074719;28;20210;-67
2023/06/27 02:49:48;;;;;;;9.85;4.97;;;;;;;;;;5083253;28;20188;-67
2023/06/27 02:52:13;;;;;;;10.32;4.97;;;;;;;;;;5077526;28;20207;-68
2023/06/27 02:54:38;;;;;;;10.57;5.70;;;;;;;;;;5080994;28;20817;-68
2023/06/27 02:57:04;;;;;;;12.65;4.93;;;;;;;;;;5074605;28;20200;-68
2023/06/27 02:59:30;;;;;;;11.95;5.65;;;;;;;;;;5074936;28;20497;-69
2023/06/27 03:01:55;;;;;;;9.15;5.28;;;;;;;;;;5085944;28;20208;-69
2023/06/27 03:04:23;;;;;;;10.20;5.93;;;;;;;;;;5088071;28;20504;-68
2023/06/27 03:06:49;;;;;;;9.95;5.32;;;;;;;;;;5086569;28;20647;-68
2023/06/27 03:09:17;;;;;;;11.95;6.10;;;;;;;;;;5081689;28;20194;-68
2023/06/27 03:11:43;;;;;;;11.93;6.47;;;;;;;;;;5068503;28;20762;-68
2023/06/27 03:14:08;;;;;;;9.35;5.75;;;;;;;;;;5084211;28;20224;-68
2023/06/27 03:16:33;;;;;;;9.98;6.28;;;;;;;;;;5077903;28;20283;-68
2023/06/27 03:18:59;;;;;;;14.30;6.45;;;;;;;;;;5086933;28;20191;-68
2023/06/27 03:21:24;;;;;;;12.07;6.13;;;;;;;;;;5076854;28;20551;-68
2023/06/27 03:23:50;;;;;;;17.10;6.38;;;;;;;;;;5081659;28;20192;-68
2023/06/27 03:26:15;;;;;;;15.50;6.55;;;;;;;;;;5084616;28;20195;-68
2023/06/27 03:28:40;;;;;;;8.13;5.72;;;;;;;;;;5078403;28;20556;-68
2023/06/27 03:31:06;;;;;;;12.60;6.82;;;;;;;;;;5082091;28;20191;-68
2023/06/27 03:33:31;;;;;;;10.15;5.72;;;;;;;;;;5083812;28;20294;-68
2023/06/27 03:35:57;;;;;;;11.90;5.90;;;;;;;;;;5081562;28;20184;-68
2023/06/27 03:38:23;;;;;;;12.35;5.65;;;;;;;;;;5078289;28;20188;-68
2023/06/27 03:40:48;;;;;;;14.98;5.95;;;;;;;;;;5081691;28;20386;-68
2023/06/27 03:43:14;;;;;;;12.25;6.22;;;;;;;;;;5073700;28;20184;-68
2023/06/27 03:45:40;;;;;;;11.90;5.72;;;;;;;;;;5072821;28;20224;-68
2023/06/27 03:48:06;;;;;;;11.27;6.25;;;;;;;;;;5083220;28;20631;-68
2023/06/27 03:50:32;;;;;;;11.63;6.03;;;;;;;;;;5082856;28;20192;-68
2023/06/27 03:52:59;;;;;;;10.07;5.72;;;;;;;;;;5083621;28;20230;-68
2023/06/27 03:55:25;;;;;;;13.48;4.80;;;;;;;;;;5085445;28;20215;-68
2023/06/27 03:57:50;;;;;;;12.52;5.90;;;;;;;;;;5077409;28;20550;-68
2023/06/27 04:00:16;;;;;;;9.65;6.10;;;;;;;;;;5074320;28;20211;-68
2023/06/27 04:02:42;;;;;;;12.38;5.80;;;;;;;;;;5078711;28;20559;-69
2023/06/27 04:05:08;;;;;;;12.18;5.60;;;;;;;;;;5076711;28;20273;-70
2023/06/27 04:07:33;;;;;;;11.52;6.15;;;;;;;;;;5077143;28;20492;-67
2023/06/27 04:09:59;;;;;;;10.50;5.78;;;;;;;;;;5089055;28;20183;-67
2023/06/27 04:12:24;;;;;;;9.90;5.63;;;;;;;;;;5086134;28;20192;-67
2023/06/27 04:14:49;;;;;;;10.70;5.55;;;;;;;;;;5089432;28;20224;-68
2023/06/27 04:17:15;;;;;;;11.93;5.75;;;;;;;;;;5077156;28;20540;-67
2023/06/27 04:19:40;;;;;;;9.95;5.40;;;;;;;;;;5085980;28;20204;-67
2023/06/27 04:22:05;;;;;;;13.52;5.57;;;;;;;;;;5083364;28;20295;-68
2023/06/27 04:24:31;;;;;;;9.80;5.13;;;;;;;;;;5083195;28;20192;-67
2023/06/27 04:26:56;;;;;;;9.25;4.90;;;;;;;;;;5074554;28;20199;-67
2023/06/27 04:29:21;;;;;;;13.30;5.80;;;;;;;;;;5077158;28;20231;-68
2023/06/27 04:31:47;;;;;;;8.60;5.05;;;;;;;;;;5080674;28;20231;-67
2023/06/27 04:34:12;;;;;;;11.40;5.07;;;;;;;;;;5085607;28;20763;-67
2023/06/27 04:36:40;;;;;;;11.82;4.72;;;;;;;;;;5086797;28;20202;-67
2023/06/27 04:39:07;;;;;;;10.35;5.15;;;;;;;;;;5085569;28;20318;-68
2023/06/27 04:41:32;;;;;;;11.82;5.18;;;;;;;;;;5086393;28;20701;-68
2023/06/27 04:43:58;;;;;;;11.50;5.35;;;;;;;;;;5085873;28;20224;-68
2023/06/27 04:46:28;;;;;;;14.05;5.53;;;;;;;;;;5085651;28;20216;-68
2023/06/27 04:48:57;;;;;;;12.23;4.70;;;;;;;;;;5084304;28;20570;-68
2023/06/27 04:51:29;;;;;;;14.20;5.53;;;;;;;;;;5076799;28;20188;-69
2023/06/27 04:53:55;;;;;;;6.97;4.63;;;;;;;;;;5087589;28;20261;-68
2023/06/27 04:56:21;;;;;;;13.73;4.60;;;;;;;;;;5084205;28;20195;-68
2023/06/27 04:58:46;;;;;;;11.30;5.05;;;;;;;;;;5087472;28;20184;-68
2023/06/27 05:01:12;;;;;;;9.35;5.03;;;;;;;;;;5090399;28;20221;-69
2023/06/27 05:03:37;;;;;;;10.77;5.03;;;;;;;;;;5088849;28;20188;-69
2023/06/27 05:06:06;;;;;;;10.00;4.88;;;;;;;;;;5088126;28;20526;-69
2023/06/27 05:08:33;;;;;;;15.85;5.85;;;;;;;;;;5084860;28;20636;-68
2023/06/27 05:10:58;;;;;;;9.30;4.75;;;;;;;;;;5090404;28;20362;-69
2023/06/27 05:13:23;;;;;;;10.07;5.22;;;;;;;;;;5085162;28;20378;-69
2023/06/27 05:15:49;;;;;;;12.60;5.40;;;;;;;;;;5082018;28;20204;-69
2023/06/27 05:18:15;;;;;;;13.80;6.03;;;;;;;;;;5080481;28;20767;-68
2023/06/27 05:20:44;;;;;;;13.10;5.13;;;;;;;;;;5077444;28;20666;-68
2023/06/27 05:23:10;;;;;;;12.77;5.93;;;;;;;;;;5078069;28;20189;-68
2023/06/27 05:25:35;;;;;;;11.07;5.80;;;;;;;;;;5074163;28;20219;-69
2023/06/27 05:28:01;;;;;;;13.57;5.65;;;;;;;;;;5090022;28;20188;-69
2023/06/27 05:30:27;;;;;;;10.27;5.70;;;;;;;;;;5086013;28;20196;-69
2023/06/27 05:32:54;;;;;;;11.15;5.50;;;;;;;;;;5087567;28;20734;-68
2023/06/27 05:35:19;;;;;;;15.82;5.22;;;;;;;;;;5082894;28;20581;-69
2023/06/27 05:37:45;;;;;;;14.02;5.47;;;;;;;;;;5085362;28;20198;-69
2023/06/27 05:40:11;;;;;;;11.05;5.55;;;;;;;;;;5087642;28;20617;-70
2023/06/27 05:42:36;;;;;;;10.98;4.90;;;;;;;;;;5084899;28;20189;-69
2023/06/27 05:45:02;;;;;;;11.57;5.22;;;;;;;;;;5084619;28;20207;-69
2023/06/27 05:47:27;;;;;;;12.05;5.55;;;;;;;;;;5075944;28;20197;-69
2023/06/27 05:49:53;;;;;;;11.15;5.40;;;;;;;;;;5074772;28;20305;-70
2023/06/27 05:52:18;;;;;;;13.63;6.25;;;;;;;;;;5083928;28;20636;-69
2023/06/27 05:54:44;;;;;;;16.48;6.05;;;;;;;;;;5079391;28;20224;-69
2023/06/27 05:57:10;;;;;;;9.98;4.78;;;;;;;;;;5079329;28;20508;-70
2023/06/27 05:59:35;;;;;;;15.68;4.82;;;;;;;;;;5080206;28;20292;-69
2023/06/27 06:02:01;;;;;;;11.77;5.30;;;;;;;;;;5081087;28;20203;-69
2023/06/27 06:04:26;;;;;;;11.93;4.72;;;;;;;;;;5083749;28;20271;-69
2023/06/27 06:06:51;;;;;;;12.60;4.38;;;;;;;;;;5084632;28;20176;-70
2023/06/27 06:09:17;;;;;;;12.18;4.65;;;;;;;;;;5082242;28;20238;-69
2023/06/27 06:11:44;;;;;;;10.02;4.05;;;;;;;;;;5083431;28;20237;-69
2023/06/27 06:14:09;;;;;;;9.32;4.20;;;;;;;;;;5081998;28;20561;-69
2023/06/27 06:16:35;;;;;;;10.52;3.85;;;;;;;;;;5072594;28;20287;-69
2023/06/27 06:19:01;;;;;;;12.57;3.72;;;;;;;;;;5078882;28;20199;-70
2023/06/27 06:21:27;;;;;;;13.52;3.78;;;;;;;;;;5079554;28;20206;-70
2023/06/27 06:23:52;;;;;;;13.05;3.72;;;;;;;;;;5077942;28;20571;-70
2023/06/27 06:26:18;;;;;;;8.65;3.53;;;;;;;;;;5087902;28;20195;-69
2023/06/27 06:28:43;;;;;;;8.32;3.30;;;;;;;;;;5084248;28;20227;-70
2023/06/27 06:31:10;;;;;;;9.25;3.15;;;;;;;;;;5085239;28;20184;-70
2023/06/27 06:33:40;;;;;;;7.90;2.60;;;;;;;;;;5078928;28;20284;-69
2023/06/27 06:36:06;;;;;;;8.65;2.58;;;;;;;;;;5080231;28;20599;-69
2023/06/27 06:38:32;;;;;;;10.90;2.20;;;;;;;;;;5085685;28;20582;-70
2023/06/27 06:40:57;;;;;;;7.85;2.35;;;;;;;;;;5087043;28;20216;-70
2023/06/27 06:43:26;;;;;;;5.45;2.15;;;;;;;;;;5084326;28;20200;-69
2023/06/27 06:45:52;;;;;;;4.85;2.00;;;;;;;;;;5080420;28;20735;-70
2023/06/27 06:48:19;;;;;;;3.95;1.67;;;;;;;;;;5075895;28;20527;-69
2023/06/27 06:50:45;;;;;;;6.45;1.83;;;;;;;;;;5073500;28;20184;-69
2023/06/27 06:53:10;;;;;;;8.18;1.92;;;;;;;;;;5075515;28;20214;-69
2023/06/27 06:55:35;;;;;;;8.30;1.95;;;;;;;;;;5078733;28;20211;-70
2023/06/27 06:58:01;;;;;;;6.75;2.00;;;;;;;;;;5072715;28;20203;-69
2023/06/27 07:00:26;;;;;;;5.35;1.95;;;;;;;;;;5075768;28;20212;-70
2023/06/27 07:02:52;;;;;;;2.92;1.27;;;;;;;;;;5076445;28;20192;-70
2023/06/27 07:05:17;;;;;;;4.53;1.48;;;;;;;;;;5072599;28;20210;-70
2023/06/27 07:07:43;;;;;;;7.60;1.90;;;;;;;;;;5071569;28;20193;-69
2023/06/27 07:10:09;;;;;;;7.65;1.95;;;;;;;;;;5076314;28;20198;-69
2023/06/27 07:12:35;;;;;;;4.90;1.65;;;;;;;;;;5071617;28;20267;-70
2023/06/27 07:15:00;;;;;;;11.60;1.65;;;;;;;;;;5076701;28;20288;-69
2023/06/27 07:17:26;;;;;;;7.07;2.03;;;;;;;;;;5067317;28;20220;-69
2023/06/27 07:19:52;;;;;;;6.63;1.50;;;;;;;;;;5075370;28;20784;-70
2023/06/27 07:22:18;;;;;;;9.77;2.20;;;;;;;;;;5080185;28;20208;-69
2023/06/27 07:24:43;;;;;;;8.38;2.05;;;;;;;;;;5078124;28;20474;-69
2023/06/27 07:27:09;;;;;;;6.20;2.28;;;;;;;;;;5077551;28;20176;-69
2023/06/27 07:29:35;;;;;;;5.95;2.20;;;;;;;;;;5073841;28;20295;-69
2023/06/27 07:32:00;;;;;;;7.95;1.65;;;;;;;;;;5078847;28;20738;-69
2023/06/27 07:34:26;;;;;;;6.95;1.90;;;;;;;;;;5081223;28;20219;-70
2023/06/27 07:36:51;;;;;;;3.90;2.00;;;;;;;;;;5076427;28;20232;-70
2023/06/27 07:39:17;;;;;;;7.05;2.42;;;;;;;;;;5068566;28;20497;-70
2023/06/27 07:41:42;;;;;;;9.35;2.83;;;;;;;;;;5086607;28;20281;-69
2023/06/27 07:44:07;;;;;;;7.43;2.45;;;;;;;;;;5087354;28;20672;-69
2023/06/27 07:46:33;;;;;;;5.72;2.50;;;;;;;;;;5093011;28;20200;-70
2023/06/27 07:48:59;;;;;;;8.15;2.53;;;;;;;;;;5081803;28;20270;-70
2023/06/27 07:51:26;;;;;;;6.28;2.17;;;;;;;;;;5086441;28;20192;-70
2023/06/27 07:53:51;;;;;;;7.53;1.85;;;;;;;;;;5081297;28;20257;-70
2023/06/27 07:56:18;;;;;;;7.15;2.22;;;;;;;;;;5077121;28;20197;-69
2023/06/27 07:58:44;;;;;;;4.38;1.90;;;;;;;;;;5090086;28;20223;-69
2023/06/27 08:01:10;;;;;;;9.75;2.30;;;;;;;;;;5076840;28;20562;-70
2023/06/27 08:03:35;;;;;;;5.63;2.40;;;;;;;;;;5085432;28;20275;-70
2023/06/27 08:06:03;;;;;;;8.07;2.95;;;;;;;;;;5075129;28;20195;-70
2023/06/27 08:08:29;;;;;;;8.45;2.58;;;;;;;;;;5074034;28;20436;-69
2023/06/27 08:10:56;;;;;;;6.75;2.50;;;;;;;;;;5082091;28;20188;-70
2023/06/27 08:13:22;;;;;;;7.03;2.25;;;;;;;;;;5076384;28;20201;-69
2023/06/27 08:15:47;;;;;;;5.00;1.65;;;;;;;;;;5086088;28;20210;-69
2023/06/27 08:18:12;;;;;;;5.80;2.00;;;;;;;;;;5079042;28;20188;-70
2023/06/27 08:20:38;;;;;;;5.93;2.00;;;;;;;;;;5080088;28;20734;-70
2023/06/27 08:23:03;;;;;;;8.25;2.22;;;;;;;;;;5079509;28;20189;-70
2023/06/27 08:25:29;;;;;;;9.23;1.70;;;;;;;;;;5079547;28;20238;-69
2023/06/27 08:27:54;;;;;;;4.55;1.75;;;;;;;;;;5079960;28;20369;-70
2023/06/27 08:30:19;;;;;;;3.70;1.65;;;;;;;;;;5087358;28;20798;-70
2023/06/27 08:32:45;;;;;;;6.13;1.80;;;;;;;;;;5077279;28;20188;-70
2023/06/27 08:35:11;;;;;;;5.93;1.85;;;;;;;;;;5075725;28;20294;-69
2023/06/27 08:37:37;;;;;;;5.47;1.60;;;;;;;;;;5076044;28;20314;-70
2023/06/27 08:40:03;;;;;;;6.75;1.48;;;;;;;;;;5084257;28;20315;-68
2023/06/27 08:42:31;;;;;;;3.88;1.67;;;;;;;;;;5076843;28;20601;-67
2023/06/27 08:45:00;;;;;;;7.45;1.48;;;;;;;;;;5090211;28;20188;-68
2023/06/27 08:47:29;;;;;;;6.93;1.52;;;;;;;;;;5085306;28;20567;-68
2023/06/27 08:50:03;;;;;;;5.28;1.50;;;;;;;;;;5083151;28;20233;-68
2023/06/27 08:52:31;;;;;;;6.78;1.60;;;;;;;;;;5090809;28;20179;-68
2023/06/27 08:54:58;;;;;;;8.63;1.75;;;;;;;;;;5071591;28;20706;-69
2023/06/27 08:57:28;;;;;;;6.22;1.67;;;;;;;;;;5089339;28;20665;-68
2023/06/27 08:59:55;;;;;;;5.22;1.38;;;;;;;;;;5070785;28;20245;-68
2023/06/27 09:02:21;;;;;;;5.90;1.55;;;;;;;;;;5082555;28;20212;-68
2023/06/27 09:04:47;;;;;;;3.88;1.42;;;;;;;;;;5067544;28;20189;-69
2023/06/27 09:07:13;;;;;;;5.97;1.52;;;;;;;;;;5081820;28;20636;-68
2023/06/27 09:09:38;;;;;;;5.88;1.70;;;;;;;;;;5082171;28;20226;-69
2023/06/27 09:12:04;;;;;;;6.97;1.30;;;;;;;;;;5089023;28;20238;-68
2023/06/27 09:14:30;;;;;;;5.38;1.35;;;;;;;;;;5088410;28;20238;-68
2023/06/27 09:16:55;;;;;;;4.88;1.50;;;;;;;;;;5085458;28;20280;-69
2023/06/27 09:19:22;;;;;;;4.43;1.35;;;;;;;;;;5077230;28;20172;-68
2023/06/27 09:21:50;;;;;;;2.67;1.38;;;;;;;;;;5087450;28;20242;-69
2023/06/27 09:24:23;;;;;;;5.05;1.60;;;;;;;;;;5075969;28;20276;-68
2023/06/27 09:26:48;;;;;;;4.88;1.33;;;;;;;;;;5085578;28;20185;-69
2023/06/27 09:29:15;;;;;;;6.88;1.85;;;;;;;;;;5075196;28;20196;-69
2023/06/27 09:31:41;;;;;;;9.07;2.05;;;;;;;;;;5079233;28;20189;-68
2023/06/27 09:34:09;;;;;;;5.88;1.88;;;;;;;;;;5077930;28;20212;-68
2023/06/27 09:36:36;;;;;;;5.53;2.13;;;;;;;;;;5078681;28;20188;-68
2023/06/27 09:39:06;;;;;;;6.95;2.20;;;;;;;;;;5074436;28;20272;-70
2023/06/27 09:41:44;;;;;;;8.40;2.33;;;;;;;;;;5077181;28;20231;-68
2023/06/27 09:44:18;;;;;;;5.20;1.90;;;;;;;;;;5076686;28;20727;-68
2023/06/27 09:46:45;;;;;;;5.85;1.92;;;;;;;;;;5084485;28;20188;-68
2023/06/27 09:49:11;;;;;;;6.43;2.17;;;;;;;;;;5077683;28;20185;-69
2023/06/27 09:51:37;;;;;;;5.47;1.80;;;;;;;;;;5087110;28;20188;-69
2023/06/27 09:54:03;;;;;;;4.35;1.33;;;;;;;;;;5079446;28;20220;-69
2023/06/27 09:56:34;;;;;;;5.05;1.27;;;;;;;;;;5082880;28;20214;-69
2023/06/27 09:59:08;;;;;;;6.95;1.17;;;;;;;;;;5081343;28;20185;-69
2023/06/27 10:01:36;;;;;;;6.82;1.20;;;;;;;;;;5077900;28;20295;-69
2023/06/27 10:04:02;;;;;;;4.47;1.40;;;;;;;;;;5069421;28;20255;-70
2023/06/27 10:06:28;;;;;;;3.55;0.90;;;;;;;;;;5076653;28;20214;-70
2023/06/27 10:08:54;;;;;;;4.80;1.10;;;;;;;;;;5087178;28;20191;-69
2023/06/27 10:11:20;;;;;;;2.80;0.80;;;;;;;;;;5089441;28;20196;-69
2023/06/27 10:13:45;;;;;;;3.38;0.95;;;;;;;;;;5072170;28;20736;-68
2023/06/27 10:16:11;;;;;;;3.60;0.95;;;;;;;;;;5078751;28;20187;-69
2023/06/27 10:18:37;;;;;;;4.15;1.40;;;;;;;;;;5075011;28;20192;-69
2023/06/27 10:21:03;;;;;;;7.28;1.35;;;;;;;;;;5082087;28;20193;-69
2023/06/27 10:23:31;;;;;;;4.20;1.00;;;;;;;;;;5068844;28;20272;-68
2023/06/27 10:25:58;;;;;;;5.25;1.02;;;;;;;;;;5071534;28;20271;-68
2023/06/27 10:28:24;;;;;;;4.53;1.00;;;;;;;;;;5072332;28;20189;-70
2023/06/27 10:30:49;;;;;;;3.08;0.98;;;;;;;;;;5085834;28;20219;-68
2023/06/27 10:33:29;;;;;;;4.28;1.00;;;;;;;;;;5071678;28;20227;-69
2023/06/27 10:36:00;;;;;;;4.93;1.10;;;;;;;;;;5080403;28;20188;-69
2023/06/27 10:38:37;;;;;;;3.55;1.40;;;;;;;;;;5082893;28;20562;-68
2023/06/27 10:41:06;;;;;;;4.20;1.00;;;;;;;;;;5083214;28;20785;-67
2023/06/27 10:43:54;;;;;;;1.58;0.77;;;;;;;;;;5072493;28;20192;-68
2023/06/27 10:46:27;;;;;;;4.72;1.50;;;;;;;;;;5074934;28;20188;-69
2023/06/27 10:49:04;;;;;;;3.28;1.08;;;;;;;;;;5080867;28;20211;-64
2023/06/27 10:51:38;;;;;;;5.53;1.10;;;;;;;;;;5078101;28;20198;-68
2023/06/27 10:54:11;;;;;;;3.28;0.90;;;;;;;;;;5079308;28;20211;-68
2023/06/27 10:56:44;;;;;;;4.13;0.70;;;;;;;;;;5068781;28;20188;-68
2023/06/27 10:59:12;;;;;;;1.95;0.88;;;;;;;;;;5066970;28;20291;-68
2023/06/27 11:01:43;;;;;;;3.33;0.80;;;;;;;;;;5077889;28;20220;-68
2023/06/27 11:04:25;;;;;;;3.08;0.90;;;;;;;;;;5076895;28;20184;-69
2023/06/27 11:07:00;;;;;;;6.72;0.88;;;;;;;;;;5075515;28;20187;-65
2023/06/27 11:09:28;;;;;;;4.20;0.90;;;;;;;;;;5084448;28;20658;-70
2023/06/27 11:12:06;;;;;;;6.57;0.90;;;;;;;;;;5081970;28;20184;-69
2023/06/27 11:14:34;;;;;;;7.28;1.02;;;;;;;;;;5075996;28;20214;-69
2023/06/27 11:17:02;;;;;;;4.45;1.00;;;;;;;;;;5070825;28;20684;-68
2023/06/27 11:19:28;;;;;;;3.53;1.13;;;;;;;;;;5076849;28;20585;-70
2023/06/27 11:21:55;;;;;;;3.40;1.10;;;;;;;;;;5083612;28;20184;-68
2023/06/27 11:24:22;;;;;;;6.07;0.98;;;;;;;;;;5079060;28;20264;-68
2023/06/27 11:26:51;;;;;;;3.33;0.98;;;;;;;;;;5078553;28;20507;-70
2023/06/27 11:29:16;;;;;;;3.83;1.00;;;;;;;;;;5071403;28;20192;-70
2023/06/27 11:31:42;;;;;;;4.88;1.45;;;;;;;;;;5083710;28;20215;-69
2023/06/27 11:34:08;;;;;;;4.63;1.00;;;;;;;;;;5074942;28;20249;-69
2023/06/27 11:36:36;;;;;;;3.55;0.90;;;;;;;;;;5088265;28;20256;-69
2023/06/27 11:39:01;;;;;;;4.03;0.70;;;;;;;;;;5075748;28;20180;-69
2023/06/27 11:41:27;;;;;;;3.15;1.05;;;;;;;;;;5075102;28;20583;-69
2023/06/27 11:43:53;;;;;;;3.03;0.98;;;;;;;;;;5083382;28;20507;-68
2023/06/27 11:46:19;;;;;;;2.42;0.93;;;;;;;;;;5080632;28;20195;-69
2023/06/27 11:48:46;;;;;;;5.05;1.40;;;;;;;;;;5077993;28;20187;-70
2023/06/27 11:51:11;;;;;;;5.13;0.80;;;;;;;;;;5077619;28;20203;-69
2023/06/27 11:53:37;;;;;;;2.15;0.82;;;;;;;;;;5087548;28;20196;-69
2023/06/27 11:56:04;;;;;;;3.05;0.90;;;;;;;;;;5075995;28;20184;-69
2023/06/27 11:58:32;;;;;;;2.70;0.80;;;;;;;;;;5066312;28;20193;-69
2023/06/27 12:01:01;;;;;;;5.55;1.05;;;;;;;;;;5079428;28;20212;-69
2023/06/27 12:03:30;;;;;;;6.45;1.50;;;;;;;;;;5080547;28;20191;-69
2023/06/27 12:05:57;;;;;;;4.55;1.00;;;;;;;;;;5078338;28;20199;-67
2023/06/27 12:08:28;;;;;;;3.55;0.93;;;;;;;;;;5083633;28;20611;-67
2023/06/27 12:10:56;;;;;;;4.05;1.00;;;;;;;;;;5085145;28;20241;-69
2023/06/27 12:13:29;;;;;;;4.35;1.20;;;;;;;;;;5072052;28;20262;-68
2023/06/27 12:15:54;;;;;;;4.88;1.52;;;;;;;;;;5082306;28;20230;-67
2023/06/27 12:18:23;;;;;;;4.68;1.27;;;;;;;;;;5085576;28;20180;-69
2023/06/27 12:20:51;;;;;;;6.10;1.00;;;;;;;;;;5088284;28;20184;-68
2023/06/27 12:23:16;;;;;;;3.05;1.05;;;;;;;;;;5082005;28;20265;-68
2023/06/27 12:25:42;;;;;;;4.18;1.27;;;;;;;;;;5086814;28;20624;-68
2023/06/27 12:28:08;;;;;;;3.00;0.90;;;;;;;;;;5078477;28;20197;-68
2023/06/27 12:30:34;;;;;;;8.82;1.17;;;;;;;;;;5074087;28;20176;-69
2023/06/27 12:33:00;;;;;;;2.58;1.00;;;;;;;;;;5085978;28;20220;-68
2023/06/27 12:35:25;;;;;;;3.60;1.00;;;;;;;;;;5072204;28;20216;-65
2023/06/27 12:37:51;;;;;;;3.25;1.20;;;;;;;;;;5084151;28;20188;-69
2023/06/27 12:40:17;;;;;;;5.05;1.20;;;;;;;;;;5078218;28;20228;-69
2023/06/27 12:42:44;;;;;;;2.67;1.08;;;;;;;;;;5076759;28;20192;-70
2023/06/27 12:45:12;;;;;;;3.45;1.10;;;;;;;;;;5072570;28;20184;-67
2023/06/27 12:47:41;;;;;;;5.32;1.00;;;;;;;;;;5083945;28;20189;-69
2023/06/27 12:50:16;;;;;;;3.38;1.00;;;;;;;;;;5073739;28;20209;-69
2023/06/27 12:52:47;;;;;;;2.33;1.00;;;;;;;;;;5083685;28;20609;-66
2023/06/27 12:55:13;;;;;;;3.78;0.93;;;;;;;;;;5077910;28;20208;-68
2023/06/27 12:57:39;;;;;;;4.13;1.23;;;;;;;;;;5088592;28;20215;-68
2023/06/27 13:00:05;;;;;;;3.47;1.02;;;;;;;;;;5086497;28;20217;-68
2023/06/27 13:02:31;;;;;;;2.42;0.82;;;;;;;;;;5089910;28;20196;-68
2023/06/27 13:04:57;;;;;;;3.05;0.82;;;;;;;;;;5082659;28;20173;-69
2023/06/27 13:07:22;;;;;;;6.30;1.10;;;;;;;;;;5083060;28;20583;-66
2023/06/27 13:09:47;;;;;;;6.00;0.98;;;;;;;;;;5085958;28;20415;-69
2023/06/27 13:12:13;;;;;;;4.53;0.98;;;;;;;;;;5089028;28;20195;-68
2023/06/27 13:14:38;;;;;;;3.85;1.05;;;;;;;;;;5078376;28;20220;-69
2023/06/27 13:17:04;;;;;;;5.93;1.30;;;;;;;;;;5085047;28;20216;-69
2023/06/27 13:19:31;;;;;;;3.03;1.23;;;;;;;;;;5082134;28;20493;-68
2023/06/27 13:21:56;;;;;;;3.95;1.10;;;;;;;;;;5081192;28;20655;-67
2023/06/27 13:24:22;;;;;;;5.60;1.27;;;;;;;;;;5089949;28;20191;-70
2023/06/27 13:26:47;;;;;;;3.92;0.90;;;;;;;;;;5087207;28;20559;-68
2023/06/27 13:29:15;;;;;;;4.22;1.10;;;;;;;;;;5084427;28;20188;-70
2023/06/27 13:31:41;;;;;;;3.55;1.00;;;;;;;;;;5087933;28;20262;-69
2023/06/27 13:34:06;;;;;;;3.50;1.10;;;;;;;;;;5077614;28;20296;-68
2023/06/27 13:36:32;;;;;;;2.42;1.00;;;;;;;;;;5070071;28;20280;-69
2023/06/27 13:38:59;;;;;;;2.80;0.90;;;;;;;;;;5086348;28;20188;-69
2023/06/27 13:41:24;;;;;;;4.70;1.17;;;;;;;;;;5080289;28;20216;-70
2023/06/27 13:43:50;;;;;;;3.50;1.15;;;;;;;;;;5084929;28;20294;-65
2023/06/27 13:46:16;;;;;;;3.78;0.85;;;;;;;;;;5085737;28;20184;-68
2023/06/27 13:48:41;;;;;;;3.72;1.13;;;;;;;;;;5079075;28;20189;-68
2023/06/27 13:51:06;;;;;;;3.17;0.90;;;;;;;;;;5074040;28;20200;-69
2023/06/27 13:53:32;;;;;;;4.38;1.10;;;;;;;;;;5080845;28;20195;-65
2023/06/27 13:55:57;;;;;;;6.95;1.20;;;;;;;;;;5080662;28;20200;-69
2023/06/27 13:58:24;;;;;;;6.28;1.00;;;;;;;;;;5077263;28;20268;-69
2023/06/27 14:00:50;;;;;;;5.55;1.30;;;;;;;;;;5081121;28;20249;-69
2023/06/27 14:03:18;;;;;;;3.25;1.20;;;;;;;;;;5077504;28;20177;-68
2023/06/27 14:05:47;;;;;;;2.58;1.10;;;;;;;;;;5085683;28;20245;-69
2023/06/27 14:08:12;;;;;;;4.43;1.00;;;;;;;;;;5082306;28;20523;-68
2023/06/27 14:10:37;;;;;;;4.03;0.77;;;;;;;;;;5075570;28;20220;-69
2023/06/27 14:13:04;;;;;;;4.88;1.00;;;;;;;;;;5084444;28;20739;-68
2023/06/27 14:15:30;;;;;;;3.22;0.98;;;;;;;;;;5079193;28;20265;-67
2023/06/27 14:17:56;;;;;;;4.53;1.05;;;;;;;;;;5086290;28;20191;-69
2023/06/27 14:20:21;;;;;;;4.82;1.20;;;;;;;;;;5074243;28;20563;-69
2023/06/27 14:22:47;;;;;;;3.88;1.20;;;;;;;;;;5077593;28;20576;-68
2023/06/27 14:25:13;;;;;;;2.80;1.20;;;;;;;;;;5085004;28;20188;-68
2023/06/27 14:27:38;;;;;;;5.65;1.40;;;;;;;;;;5075885;28;20187;-69
2023/06/27 14:30:04;;;;;;;4.22;1.30;;;;;;;;;;5069718;28;20260;-67
2023/06/27 14:32:30;;;;;;;5.13;1.30;;;;;;;;;;5082994;28;20692;-68
2023/06/27 14:34:55;;;;;;;3.63;1.10;;;;;;;;;;5082935;28;20215;-68
2023/06/27 14:37:21;;;;;;;8.27;1.15;;;;;;;;;;5077797;28;20181;-68